NSZ457 LTAI-LTFM
Flight info
| Callsign | NSZ457 |
|---|---|
| Flight time | N/A |
| Altitude | 38000 |
| Route | EKSEN UM855 SISPI |
| Aircraft | B38M/M-SDE1FGHILORVWXY/HB1 |
Departure
| Time | 2026-05-04 18:15 |
|---|---|
| Airport | Antalya International Airport (LTAI) |
Arrival
| Time | N/A |
|---|---|
| Airport | İstanbul Airport (LTFM) |
| Time | Latitude | Longitude | Altitude | Speed | Heading |
|---|---|---|---|---|---|
| 2026-05-04 17:30 | 36.89737 | 30.80033 | 204 ft | 0 kts | 61° |
| 2026-05-04 17:36 | 36.89737 | 30.80032 | 205 ft | 0 kts | 61° |
| 2026-05-04 17:49 | 36.89737 | 30.80031 | 194 ft | 0 kts | 61° |
| 2026-05-04 17:56 | 36.89728 | 30.80012 | 208 ft | 4 kts | 61° |
| 2026-05-04 17:56 | 36.89715 | 30.79983 | 194 ft | 3 kts | 61° |
| 2026-05-04 17:57 | 36.89705 | 30.79959 | 205 ft | 4 kts | 61° |
| 2026-05-04 17:57 | 36.89696 | 30.79930 | 207 ft | 4 kts | 97° |
| 2026-05-04 17:57 | 36.89707 | 30.79912 | 201 ft | 4 kts | 161° |
| 2026-05-04 17:57 | 36.89729 | 30.79912 | 205 ft | 2 kts | 185° |
| 2026-05-04 17:58 | 36.89753 | 30.79915 | 207 ft | 4 kts | 187° |
| 2026-05-04 17:58 | 36.89761 | 30.79916 | 205 ft | 0 kts | 186° |
| 2026-05-04 18:03 | 36.89748 | 30.79915 | 199 ft | 4 kts | 186° |
| 2026-05-04 18:03 | 36.89704 | 30.79908 | 202 ft | 8 kts | 186° |
| 2026-05-04 18:03 | 36.89655 | 30.79906 | 200 ft | 8 kts | 178° |
| 2026-05-04 18:03 | 36.89609 | 30.79927 | 199 ft | 6 kts | 111° |
| 2026-05-04 18:04 | 36.89616 | 30.79985 | 194 ft | 8 kts | 78° |
| 2026-05-04 18:04 | 36.89613 | 30.80069 | 194 ft | 11 kts | 95° |
| 2026-05-04 18:04 | 36.89592 | 30.80306 | 205 ft | 16 kts | 97° |
| 2026-05-04 18:05 | 36.89580 | 30.80439 | 201 ft | 10 kts | 96° |
| 2026-05-04 18:05 | 36.89570 | 30.80541 | 194 ft | 12 kts | 96° |
| 2026-05-04 18:05 | 36.89563 | 30.80619 | 197 ft | 10 kts | 96° |
| 2026-05-04 18:05 | 36.89519 | 30.80684 | 194 ft | 12 kts | 174° |
| 2026-05-04 18:06 | 36.89322 | 30.80659 | 194 ft | 17 kts | 186° |
| 2026-05-04 18:06 | 36.89197 | 30.80642 | 194 ft | 19 kts | 186° |
| 2026-05-04 18:06 | 36.89054 | 30.80622 | 194 ft | 22 kts | 186° |
| 2026-05-04 18:07 | 36.88905 | 30.80602 | 195 ft | 23 kts | 186° |
| 2026-05-04 18:07 | 36.88748 | 30.80580 | 202 ft | 21 kts | 186° |
| 2026-05-04 18:07 | 36.88628 | 30.80563 | 195 ft | 18 kts | 186° |
| 2026-05-04 18:07 | 36.88506 | 30.80545 | 195 ft | 16 kts | 186° |
| 2026-05-04 18:08 | 36.88386 | 30.80529 | 195 ft | 19 kts | 186° |
| 2026-05-04 18:08 | 36.88247 | 30.80511 | 195 ft | 21 kts | 186° |
| 2026-05-04 18:08 | 36.88154 | 30.80518 | 201 ft | 11 kts | 136° |
| 2026-05-04 18:08 | 36.88135 | 30.80611 | 199 ft | 0 kts | 96° |
| 2026-05-04 18:10 | 36.88130 | 30.80666 | 192 ft | 12 kts | 97° |
| 2026-05-04 18:11 | 36.88135 | 30.80738 | 192 ft | 4 kts | 71° |
| 2026-05-04 18:11 | 36.88135 | 30.80739 | 192 ft | 1 kts | 63° |
| 2026-05-04 18:11 | 36.88176 | 30.80737 | 205 ft | 13 kts | 356° |
| 2026-05-04 18:11 | 36.88258 | 30.80745 | 193 ft | 0 kts | 6° |
| 2026-05-04 18:13 | 36.88281 | 30.80748 | 194 ft | 5 kts | 6° |
| 2026-05-04 18:14 | 36.88372 | 30.80759 | 202 ft | 43 kts | 6° |
| 2026-05-04 18:14 | 36.88995 | 30.80851 | 201 ft | 134 kts | 6° |
| 2026-05-04 18:14 | 36.90177 | 30.81008 | 244 ft | 203 kts | 5° |
| 2026-05-04 18:15 | 36.93343 | 30.81420 | 1884 ft | 254 kts | 3° |
| 2026-05-04 18:15 | 36.96393 | 30.83074 | 3780 ft | 230 kts | 24° |
| 2026-05-04 18:15 | 36.97741 | 30.83962 | 5332 ft | 211 kts | 23° |
| 2026-05-04 18:16 | 36.99040 | 30.84748 | 6639 ft | 211 kts | 21° |
| 2026-05-04 18:16 | 37.00443 | 30.85522 | 7384 ft | 230 kts | 20° |
| 2026-05-04 18:16 | 37.01982 | 30.86329 | 8098 ft | 250 kts | 20° |
| 2026-05-04 18:17 | 37.05398 | 30.88055 | 9669 ft | 275 kts | 19° |
| 2026-05-04 18:17 | 37.07222 | 30.88728 | 9837 ft | 272 kts | 1° |
| 2026-05-04 18:17 | 37.10948 | 30.88057 | 10079 ft | 277 kts | 348° |
| 2026-05-04 18:18 | 37.12834 | 30.87614 | 11021 ft | 281 kts | 348° |
| 2026-05-04 18:18 | 37.14818 | 30.87135 | 11679 ft | 296 kts | 347° |
| 2026-05-04 18:18 | 37.16867 | 30.86631 | 12545 ft | 306 kts | 347° |
| 2026-05-04 18:18 | 37.19001 | 30.86100 | 13280 ft | 318 kts | 347° |
| 2026-05-04 18:19 | 37.23391 | 30.85001 | 14979 ft | 325 kts | 347° |
| 2026-05-04 18:19 | 37.25624 | 30.84441 | 15779 ft | 329 kts | 347° |
| 2026-05-04 18:19 | 37.27870 | 30.83876 | 16683 ft | 330 kts | 347° |
| 2026-05-04 18:20 | 37.30129 | 30.83307 | 17523 ft | 333 kts | 348° |
| 2026-05-04 18:20 | 37.32375 | 30.82742 | 18339 ft | 335 kts | 348° |
| 2026-05-04 18:20 | 37.34668 | 30.82161 | 19033 ft | 338 kts | 348° |
| 2026-05-04 18:20 | 37.36986 | 30.81573 | 19704 ft | 341 kts | 348° |
| 2026-05-04 18:21 | 37.39321 | 30.80981 | 20382 ft | 344 kts | 348° |
| 2026-05-04 18:21 | 37.41679 | 30.80387 | 21027 ft | 347 kts | 349° |
| 2026-05-04 18:21 | 37.44106 | 30.80261 | 21679 ft | 351 kts | 0° |
| 2026-05-04 18:21 | 37.46555 | 30.80340 | 22298 ft | 355 kts | 360° |
| 2026-05-04 18:22 | 37.49031 | 30.80420 | 22919 ft | 358 kts | 0° |
| 2026-05-04 18:22 | 37.51535 | 30.80530 | 23524 ft | 361 kts | 0° |
| 2026-05-04 18:22 | 37.54054 | 30.80642 | 24032 ft | 364 kts | 0° |
| 2026-05-04 18:22 | 37.56591 | 30.80755 | 24543 ft | 367 kts | 1° |
| 2026-05-04 18:23 | 37.59151 | 30.80869 | 25029 ft | 369 kts | 0° |
| 2026-05-04 18:23 | 37.61732 | 30.80984 | 25481 ft | 373 kts | 0° |
| 2026-05-04 18:23 | 37.64335 | 30.81100 | 25954 ft | 375 kts | 1° |
| 2026-05-04 18:23 | 37.66950 | 30.81217 | 26422 ft | 378 kts | 0° |
| 2026-05-04 18:24 | 37.69588 | 30.81335 | 26878 ft | 381 kts | 1° |
| 2026-05-04 18:24 | 37.72248 | 30.81454 | 27343 ft | 383 kts | 1° |
| 2026-05-04 18:24 | 37.74921 | 30.81507 | 27790 ft | 385 kts | 354° |
| 2026-05-04 18:24 | 37.77521 | 30.80734 | 28224 ft | 388 kts | 338° |
| 2026-05-04 18:25 | 37.79838 | 30.78957 | 28647 ft | 395 kts | 322° |
| 2026-05-04 18:25 | 37.81804 | 30.76561 | 29063 ft | 400 kts | 318° |
| 2026-05-04 18:25 | 37.83792 | 30.74012 | 29463 ft | 404 kts | 317° |
| 2026-05-04 18:25 | 37.85745 | 30.71445 | 29887 ft | 406 kts | 317° |
| 2026-05-04 18:26 | 37.87773 | 30.69014 | 30223 ft | 406 kts | 327° |
| 2026-05-04 18:26 | 37.90301 | 30.67384 | 30547 ft | 404 kts | 343° |
| 2026-05-04 18:26 | 37.93020 | 30.66677 | 30843 ft | 406 kts | 352° |
| 2026-05-04 18:26 | 37.95858 | 30.66153 | 31158 ft | 409 kts | 352° |
| 2026-05-04 18:27 | 37.98686 | 30.65701 | 31495 ft | 411 kts | 353° |
| 2026-05-04 18:27 | 38.01499 | 30.65302 | 31805 ft | 413 kts | 353° |
| 2026-05-04 18:27 | 38.04364 | 30.64912 | 32114 ft | 415 kts | 353° |
| 2026-05-04 18:27 | 38.07246 | 30.64528 | 32432 ft | 418 kts | 353° |
| 2026-05-04 18:28 | 38.10156 | 30.64142 | 32738 ft | 421 kts | 353° |
| 2026-05-04 18:28 | 38.13077 | 30.63757 | 33080 ft | 423 kts | 353° |
| 2026-05-04 18:28 | 38.16000 | 30.63370 | 33479 ft | 423 kts | 353° |
| 2026-05-04 18:28 | 38.18931 | 30.62984 | 33856 ft | 424 kts | 353° |
| 2026-05-04 18:29 | 38.21870 | 30.62595 | 34020 ft | 426 kts | 353° |
| 2026-05-04 18:29 | 38.24816 | 30.62206 | 34031 ft | 424 kts | 353° |
| 2026-05-04 18:29 | 38.30694 | 30.61845 | 34030 ft | 424 kts | 359° |
| 2026-05-04 18:30 | 38.39555 | 30.61772 | 34018 ft | 425 kts | 358° |
| 2026-05-04 18:31 | 38.45467 | 30.61682 | 34028 ft | 425 kts | 358° |
| 2026-05-04 18:31 | 38.51381 | 30.61590 | 34018 ft | 425 kts | 358° |
| 2026-05-04 18:32 | 38.57304 | 30.61498 | 34030 ft | 426 kts | 358° |
| 2026-05-04 18:32 | 38.63230 | 30.61406 | 34022 ft | 426 kts | 358° |
| 2026-05-04 18:33 | 38.69158 | 30.61312 | 34037 ft | 426 kts | 358° |
| 2026-05-04 18:33 | 38.72083 | 30.60834 | 34016 ft | 425 kts | 343° |
| 2026-05-04 18:33 | 38.74799 | 30.59363 | 34037 ft | 426 kts | 335° |
| 2026-05-04 18:34 | 38.80135 | 30.55998 | 34037 ft | 428 kts | 335° |
| 2026-05-04 18:34 | 38.85449 | 30.52548 | 34021 ft | 428 kts | 334° |
| 2026-05-04 18:35 | 38.90755 | 30.49068 | 34031 ft | 429 kts | 334° |
| 2026-05-04 18:35 | 38.96029 | 30.45600 | 34037 ft | 429 kts | 335° |
| 2026-05-04 18:36 | 39.01342 | 30.42100 | 34033 ft | 429 kts | 335° |
| 2026-05-04 18:36 | 39.06656 | 30.38594 | 34024 ft | 429 kts | 335° |
| 2026-05-04 18:37 | 39.11970 | 30.35081 | 34029 ft | 429 kts | 335° |
| 2026-05-04 18:37 | 39.17286 | 30.31561 | 34033 ft | 429 kts | 335° |
| 2026-05-04 18:38 | 39.22606 | 30.28034 | 34033 ft | 430 kts | 335° |
| 2026-05-04 18:38 | 39.27917 | 30.24504 | 34042 ft | 430 kts | 335° |
| 2026-05-04 18:39 | 39.33452 | 30.20821 | 34028 ft | 430 kts | 335° |
| 2026-05-04 18:39 | 39.38769 | 30.17275 | 34037 ft | 430 kts | 335° |
| 2026-05-04 18:40 | 39.44086 | 30.13726 | 34039 ft | 431 kts | 335° |
| 2026-05-04 18:40 | 39.49542 | 30.10572 | 34046 ft | 430 kts | 340° |
| 2026-05-04 18:41 | 39.55041 | 30.07515 | 34047 ft | 430 kts | 339° |
| 2026-05-04 18:41 | 39.60532 | 30.04429 | 34044 ft | 430 kts | 339° |
| 2026-05-04 18:42 | 39.66025 | 30.01334 | 34045 ft | 430 kts | 339° |
| 2026-05-04 18:42 | 39.71518 | 29.98233 | 34037 ft | 430 kts | 339° |
| 2026-05-04 18:43 | 39.76996 | 29.95143 | 34107 ft | 428 kts | 340° |
| 2026-05-04 18:43 | 39.82439 | 29.92087 | 34147 ft | 420 kts | 340° |
| 2026-05-04 18:44 | 39.87815 | 29.89262 | 34055 ft | 411 kts | 350° |
| 2026-05-04 18:44 | 39.93375 | 29.89640 | 34044 ft | 404 kts | 20° |
| 2026-05-04 18:45 | 39.98386 | 29.92963 | 34042 ft | 406 kts | 29° |
| 2026-05-04 18:45 | 40.03228 | 29.96760 | 34040 ft | 406 kts | 31° |
| 2026-05-04 18:46 | 40.08011 | 30.00664 | 34045 ft | 406 kts | 31° |
| 2026-05-04 18:46 | 40.12766 | 30.04597 | 34036 ft | 404 kts | 32° |
| 2026-05-04 18:47 | 40.17499 | 30.08524 | 34035 ft | 402 kts | 32° |
| 2026-05-04 18:47 | 40.22220 | 30.12450 | 34038 ft | 401 kts | 32° |
| 2026-05-04 18:48 | 40.26913 | 30.16359 | 34035 ft | 400 kts | 32° |
| 2026-05-04 18:48 | 40.30815 | 30.19613 | 34047 ft | 400 kts | 32° |
| 2026-05-04 18:49 | 40.35507 | 30.23533 | 34033 ft | 399 kts | 32° |
| 2026-05-04 18:49 | 40.40186 | 30.27449 | 34038 ft | 398 kts | 32° |
| 2026-05-04 18:50 | 40.44856 | 30.31363 | 34032 ft | 398 kts | 32° |
| 2026-05-04 18:50 | 40.49531 | 30.35289 | 34027 ft | 398 kts | 32° |
| 2026-05-04 18:51 | 40.54250 | 30.39257 | 33471 ft | 408 kts | 32° |
| 2026-05-04 18:51 | 40.56633 | 30.41264 | 32703 ft | 406 kts | 32° |
| 2026-05-04 18:51 | 40.59005 | 30.43263 | 32045 ft | 403 kts | 32° |
| 2026-05-04 18:51 | 40.61351 | 30.45242 | 31395 ft | 400 kts | 32° |
| 2026-05-04 18:52 | 40.63686 | 30.47214 | 30767 ft | 396 kts | 32° |
| 2026-05-04 18:52 | 40.65998 | 30.49168 | 30118 ft | 393 kts | 32° |
| 2026-05-04 18:52 | 40.68291 | 30.51107 | 29378 ft | 390 kts | 32° |
| 2026-05-04 18:52 | 40.70561 | 30.53028 | 28693 ft | 386 kts | 32° |
| 2026-05-04 18:53 | 40.72813 | 30.54935 | 28042 ft | 383 kts | 32° |
| 2026-05-04 18:53 | 40.75046 | 30.56824 | 27383 ft | 380 kts | 31° |
| 2026-05-04 18:53 | 40.77428 | 30.58241 | 26753 ft | 376 kts | 15° |
| 2026-05-04 18:53 | 40.80021 | 30.58542 | 26238 ft | 376 kts | 358° |
| 2026-05-04 18:54 | 40.82558 | 30.57735 | 25836 ft | 378 kts | 342° |
| 2026-05-04 18:54 | 40.84822 | 30.55959 | 25434 ft | 383 kts | 327° |
| 2026-05-04 18:54 | 40.86642 | 30.53365 | 25018 ft | 391 kts | 311° |
| 2026-05-04 18:54 | 40.87839 | 30.50099 | 24586 ft | 403 kts | 293° |
| 2026-05-04 18:55 | 40.88409 | 30.46465 | 24371 ft | 401 kts | 290° |
| 2026-05-04 18:55 | 40.91294 | 30.40815 | 23588 ft | 366 kts | 327° |
| 2026-05-04 18:55 | 40.93139 | 30.38459 | 23175 ft | 371 kts | 321° |
| 2026-05-04 18:56 | 40.94905 | 30.35972 | 22790 ft | 370 kts | 320° |
| 2026-05-04 18:56 | 40.96618 | 30.33496 | 22444 ft | 357 kts | 319° |
| 2026-05-04 18:56 | 40.98238 | 30.31125 | 22096 ft | 346 kts | 319° |
| 2026-05-04 18:56 | 40.99810 | 30.28803 | 21745 ft | 332 kts | 319° |
| 2026-05-04 18:57 | 41.01349 | 30.26520 | 21426 ft | 327 kts | 319° |
| 2026-05-04 18:57 | 41.02841 | 30.24298 | 21128 ft | 326 kts | 319° |
| 2026-05-04 18:57 | 41.04345 | 30.22054 | 20809 ft | 325 kts | 319° |
| 2026-05-04 18:57 | 41.05788 | 30.19705 | 20429 ft | 328 kts | 308° |
| 2026-05-04 18:58 | 41.06651 | 30.16882 | 19906 ft | 345 kts | 287° |